Time;durP1;ratioP1;P1;durP2;ratioP2;P2;SDS_P1;SDS_P2;PMS_P1;PMS_P2;Temp;Humidity;BMP_temperature;BMP_pressure;BME280_temperature;BME280_humidity;BME280_pressure;Samples;Min_cycle;Max_cycle;Signal;HPM_P1;HPM_P2
2022/11/25 00:01:13;;;;;;;23.08;5.10;;;8.00;99.90;;;;;;5064026;28;20063;-81
2022/11/25 00:03:40;;;;;;;19.75;3.95;;;7.90;99.90;;;;;;5073588;28;20051;-82
2022/11/25 00:06:09;;;;;;;16.85;3.55;;;7.90;99.90;;;;;;5108295;28;20048;-81
2022/11/25 00:08:37;;;;;;;18.13;3.50;;;7.90;99.90;;;;;;5094285;28;20048;-81
2022/11/25 00:11:03;;;;;;;23.20;3.72;;;7.90;99.90;;;;;;5079452;28;20234;-80
2022/11/25 00:13:30;;;;;;;17.38;3.58;;;7.90;99.90;;;;;;5069598;28;20067;-81
2022/11/25 00:15:55;;;;;;;17.20;3.40;;;7.90;99.90;;;;;;5095036;28;20503;-81
2022/11/25 00:18:21;;;;;;;16.80;3.85;;;7.90;99.90;;;;;;5062388;28;20123;-82
2022/11/25 00:20:47;;;;;;;20.10;4.15;;;7.90;99.90;;;;;;5074792;28;20074;-81
2022/11/25 00:23:12;;;;;;;21.08;3.92;;;7.90;99.90;;;;;;5064462;28;20040;-81
2022/11/25 00:25:38;;;;;;;23.30;4.00;;;7.90;99.90;;;;;;5076686;28;20076;-83
2022/11/25 00:28:04;;;;;;;17.77;3.65;;;7.90;99.90;;;;;;5054271;28;20045;-80
2022/11/25 00:30:29;;;;;;;24.23;4.63;;;7.90;99.90;;;;;;5058793;28;20098;-80
2022/11/25 00:32:55;;;;;;;19.42;3.40;;;7.90;99.90;;;;;;5073608;28;20048;-80
2022/11/25 00:35:20;;;;;;;17.45;3.53;;;7.90;99.90;;;;;;5090899;28;20056;-80
2022/11/25 00:37:46;;;;;;;17.15;3.42;;;7.90;99.90;;;;;;5090282;28;20492;-80
2022/11/25 00:40:12;;;;;;;15.93;3.70;;;7.90;99.90;;;;;;5084657;28;20094;-80
2022/11/25 00:45:22;;;;;;;21.70;4.50;;;7.90;99.90;;;;;;5107158;28;20055;-79
2022/11/25 00:47:48;;;;;;;20.30;4.57;;;7.90;99.90;;;;;;5074423;28;20040;-79
2022/11/25 00:50:14;;;;;;;17.80;3.70;;;7.90;99.90;;;;;;5064738;28;20066;-79
2022/11/25 00:52:39;;;;;;;27.92;4.75;;;7.90;99.90;;;;;;5073083;28;20067;-79
2022/11/25 00:55:05;;;;;;;21.25;4.03;;;7.90;99.90;;;;;;5061857;28;20048;-78
2022/11/25 00:57:31;;;;;;;19.45;3.58;;;7.90;99.90;;;;;;5084869;28;20048;-79
2022/11/25 00:59:56;;;;;;;17.63;3.85;;;8.00;99.90;;;;;;5056725;28;20045;-79
2022/11/25 01:02:22;;;;;;;16.58;3.75;;;7.90;99.90;;;;;;5087602;28;20048;-79
2022/11/25 01:04:48;;;;;;;16.83;3.85;;;8.00;99.90;;;;;;5078083;28;20052;-78
2022/11/25 01:07:14;;;;;;;18.30;4.03;;;8.00;99.90;;;;;;5072566;28;20054;-81
2022/11/25 01:09:40;;;;;;;21.27;4.10;;;8.00;99.90;;;;;;5073332;28;20052;-81
2022/11/25 01:12:05;;;;;;;17.25;3.67;;;8.00;99.90;;;;;;5056646;28;20048;-80
2022/11/25 01:14:31;;;;;;;26.20;3.97;;;8.00;99.90;;;;;;5072055;28;20040;-80
2022/11/25 01:16:57;;;;;;;22.55;4.00;;;7.90;99.90;;;;;;5066676;28;20101;-81
2022/11/25 01:19:23;;;;;;;21.85;3.47;;;7.90;99.90;;;;;;5072917;28;20048;-81
2022/11/25 01:21:49;;;;;;;16.95;3.05;;;7.90;99.90;;;;;;5055904;28;20160;-80
2022/11/25 01:24:16;;;;;;;21.45;4.90;;;7.90;99.90;;;;;;5092898;28;20130;-80
2022/11/25 01:26:43;;;;;;;22.58;4.38;;;7.80;99.90;;;;;;5092288;28;20059;-81
2022/11/25 01:29:17;;;;;;;22.83;3.88;;;7.90;99.90;;;;;;5087225;28;20048;-81
2022/11/25 01:31:43;;;;;;;24.02;4.20;;;7.90;99.90;;;;;;5083458;28;20044;-81
2022/11/25 01:34:18;;;;;;;22.73;4.95;;;7.90;99.90;;;;;;5059244;28;20384;-81
2022/11/25 01:36:44;;;;;;;23.20;4.47;;;7.90;99.90;;;;;;5072477;28;20044;-80
2022/11/25 01:39:16;;;;;;;21.35;3.85;;;7.90;99.90;;;;;;5074496;28;20044;-80
2022/11/25 01:41:42;;;;;;;22.73;4.68;;;7.90;99.90;;;;;;5073243;28;20044;-81
2022/11/25 01:44:14;;;;;;;20.85;3.97;;;8.00;99.90;;;;;;5081765;28;20039;-81
2022/11/25 01:46:59;;;;;;;22.50;3.92;;;8.00;99.90;;;;;;5074742;28;20048;-81
2022/11/25 01:49:50;;;;;;;23.77;4.28;;;8.00;99.90;;;;;;5086787;28;20044;-81
2022/11/25 01:52:26;;;;;;;19.70;4.72;;;8.00;99.90;;;;;;5123798;27;20108;-81
2022/11/25 01:54:58;;;;;;;17.65;4.25;;;8.00;99.90;;;;;;5087601;28;20146;-81
2022/11/25 01:57:33;;;;;;;21.15;4.30;;;8.00;99.90;;;;;;5071984;28;20459;-81
2022/11/25 02:00:02;;;;;;;24.97;4.20;;;8.00;99.90;;;;;;5069152;28;20360;-81
2022/11/25 02:02:29;;;;;;;25.58;4.20;;;8.00;99.90;;;;;;5086509;28;20278;-81
2022/11/25 02:04:56;;;;;;;25.73;6.07;;;8.00;99.90;;;;;;5091811;28;20043;-82
2022/11/25 02:07:35;;;;;;;21.15;4.88;;;8.00;99.90;;;;;;5053075;28;20394;-81
2022/11/25 02:10:05;;;;;;;21.00;4.00;;;8.00;99.90;;;;;;5064435;28;20084;-82
2022/11/25 02:12:33;;;;;;;25.70;4.13;;;8.00;99.90;;;;;;5072000;28;20049;-81
2022/11/25 02:14:59;;;;;;;27.85;4.45;;;8.00;99.90;;;;;;5077790;28;20385;-82
2022/11/25 02:17:24;;;;;;;21.27;3.92;;;8.00;99.90;;;;;;5073054;28;20090;-82
2022/11/25 02:20:06;;;;;;;24.05;5.18;;;8.00;99.90;;;;;;5071836;28;20453;-82
2022/11/25 02:23:07;;;;;;;22.77;4.07;;;8.00;99.90;;;;;;5071925;28;20045;-82
2022/11/25 02:25:36;;;;;;;21.58;3.72;;;8.00;99.90;;;;;;5020647;28;20055;-81
2022/11/25 02:28:13;;;;;;;21.33;4.25;;;8.00;99.90;;;;;;5080575;28;20654;-81
2022/11/25 02:30:40;;;;;;;23.65;5.78;;;8.00;99.90;;;;;;5092321;28;20084;-81
2022/11/25 02:33:05;;;;;;;26.88;4.38;;;7.90;99.90;;;;;;5078557;28;20044;-81
2022/11/25 02:35:32;;;;;;;24.00;4.82;;;8.00;99.90;;;;;;5068331;28;20059;-81
2022/11/25 02:38:09;;;;;;;25.95;4.18;;;8.00;99.90;;;;;;5078278;28;20048;-81
2022/11/25 02:40:44;;;;;;;;;;;8.00;99.90;;;;;;5082620;28;20460;-82
2022/11/25 02:43:10;;;;;;;23.42;4.55;;;8.00;99.90;;;;;;5098657;28;19920;-81
2022/11/25 02:45:40;;;;;;;22.98;4.70;;;8.00;99.90;;;;;;5080884;28;20040;-83
2022/11/25 02:48:07;;;;;;;21.58;4.22;;;8.00;99.90;;;;;;5068526;28;20078;-82
2022/11/25 02:50:33;;;;;;;22.90;4.50;;;8.00;99.90;;;;;;5091304;28;20485;-82
2022/11/25 02:52:58;;;;;;;20.45;4.43;;;8.00;99.90;;;;;;5062130;28;20040;-81
2022/11/25 02:55:24;;;;;;;20.48;4.65;;;8.00;99.90;;;;;;5063764;28;20535;-81
2022/11/25 02:57:50;;;;;;;18.77;3.75;;;8.00;99.90;;;;;;5081301;28;20036;-81
2022/11/25 03:00:16;;;;;;;26.13;4.28;;;7.90;99.90;;;;;;5081212;28;20044;-81
2022/11/25 03:02:42;;;;;;;24.63;4.15;;;8.00;99.90;;;;;;5083516;28;20070;-82
2022/11/25 03:05:08;;;;;;;20.90;4.13;;;8.00;99.90;;;;;;5082859;28;20468;-81
2022/11/25 03:07:33;;;;;;;18.67;4.22;;;8.00;99.90;;;;;;5098297;28;20036;-81
2022/11/25 03:09:59;;;;;;;21.25;4.38;;;8.00;99.90;;;;;;5071162;28;20048;-81
2022/11/25 03:12:25;;;;;;;26.13;4.60;;;8.00;99.90;;;;;;5047004;28;20040;-81
2022/11/25 03:14:51;;;;;;;25.05;4.90;;;8.00;99.90;;;;;;5100667;28;20089;-81
2022/11/25 03:17:16;;;;;;;22.67;5.10;;;8.00;99.90;;;;;;5081309;28;20060;-81
2022/11/25 03:19:42;;;;;;;18.67;4.97;;;8.00;99.90;;;;;;5061278;28;20040;-81
2022/11/25 03:22:08;;;;;;;23.55;4.93;;;8.00;99.90;;;;;;5097617;28;20058;-82
2022/11/25 03:24:34;;;;;;;22.23;4.70;;;8.00;99.90;;;;;;5078335;28;20036;-81
2022/11/25 03:26:59;;;;;;;29.67;6.07;;;8.00;99.90;;;;;;5068038;28;20047;-81
2022/11/25 03:29:25;;;;;;;23.67;5.00;;;8.00;99.90;;;;;;5098201;27;20048;-81
2022/11/25 03:31:51;;;;;;;23.73;5.20;;;8.00;99.90;;;;;;5080741;28;20100;-81
2022/11/25 03:34:17;;;;;;;18.27;4.65;;;8.10;99.90;;;;;;5081518;28;20044;-81
2022/11/25 03:36:43;;;;;;;24.70;6.13;;;8.10;99.90;;;;;;5092759;28;20455;-81
2022/11/25 03:39:08;;;;;;;23.90;5.63;;;8.10;99.90;;;;;;5065636;28;20083;-81
2022/11/25 03:41:34;;;;;;;21.30;5.30;;;8.10;99.90;;;;;;5078356;28;20503;-81
2022/11/25 03:44:00;;;;;;;19.85;5.32;;;8.10;99.90;;;;;;5074471;28;20052;-81
2022/11/25 03:46:25;;;;;;;25.08;6.53;;;8.20;99.90;;;;;;5060156;28;20469;-81
2022/11/25 03:48:51;;;;;;;24.63;5.57;;;8.20;99.90;;;;;;5074502;28;20074;-82
2022/11/25 03:51:17;;;;;;;20.92;5.65;;;8.20;99.90;;;;;;5075546;28;20052;-81
2022/11/25 03:53:42;;;;;;;24.05;5.85;;;8.20;99.90;;;;;;5074402;28;20048;-81
2022/11/25 03:56:08;;;;;;;22.65;6.10;;;8.20;99.90;;;;;;5058794;28;20044;-81
2022/11/25 03:58:34;;;;;;;20.75;5.75;;;8.20;99.90;;;;;;5053969;28;20544;-81
2022/11/25 04:01:01;;;;;;;22.42;6.22;;;8.30;99.90;;;;;;5090355;28;20043;-81
2022/11/25 04:03:27;;;;;;;15.82;5.22;;;8.20;99.90;;;;;;5062721;28;20485;-82
2022/11/25 04:05:53;;;;;;;17.25;4.70;;;8.20;99.90;;;;;;5081615;28;20051;-82
2022/11/25 04:08:19;;;;;;;22.45;5.78;;;8.30;99.90;;;;;;5075272;28;20052;-82
2022/11/25 04:10:44;;;;;;;21.23;6.22;;;8.30;99.90;;;;;;5075134;28;20040;-83
2022/11/25 04:13:10;;;;;;;18.77;5.60;;;8.20;99.90;;;;;;5085829;28;20048;-82
2022/11/25 04:15:35;;;;;;;21.73;5.95;;;8.20;99.90;;;;;;5094045;28;20055;-81
2022/11/25 04:18:01;;;;;;;21.42;6.15;;;8.20;99.90;;;;;;5091519;28;20054;-81
2022/11/25 04:20:27;;;;;;;19.27;6.10;;;8.20;99.90;;;;;;5053225;28;20052;-82
2022/11/25 04:22:53;;;;;;;21.50;6.47;;;8.20;99.90;;;;;;5077343;28;20104;-81
2022/11/25 04:25:18;;;;;;;21.63;6.57;;;8.20;99.90;;;;;;5093783;28;20036;-81
2022/11/25 04:27:44;;;;;;;22.05;6.28;;;8.30;99.90;;;;;;5094480;28;20468;-81
2022/11/25 04:30:10;;;;;;;18.90;6.15;;;8.30;99.90;;;;;;5085349;28;20177;-81
2022/11/25 04:32:37;;;;;;;19.90;6.00;;;8.30;99.90;;;;;;5075656;28;20056;-81
2022/11/25 04:35:03;;;;;;;20.85;6.50;;;8.30;99.90;;;;;;5076249;28;20048;-81
2022/11/25 04:37:29;;;;;;;22.75;7.22;;;8.30;99.90;;;;;;5121860;27;20051;-81
2022/11/25 04:39:54;;;;;;;23.45;6.63;;;8.30;99.90;;;;;;5095699;28;20123;-83
2022/11/25 04:42:33;;;;;;;22.42;6.93;;;8.30;99.90;;;;;;5059638;28;20152;-82
2022/11/25 04:45:01;;;;;;;21.65;6.57;;;8.30;99.90;;;;;;5055812;28;20057;-81
2022/11/25 04:47:28;;;;;;;21.15;6.55;;;8.20;99.90;;;;;;5075507;28;20052;-82
2022/11/25 04:49:55;;;;;;;24.52;6.68;;;8.20;99.90;;;;;;5092638;28;20041;-85
2022/11/25 04:52:20;;;;;;;28.30;8.10;;;8.30;99.90;;;;;;5076758;28;20345;-81
2022/11/25 04:54:46;;;;;;;22.95;7.55;;;8.20;99.90;;;;;;5047869;28;20059;-82
2022/11/25 04:57:13;;;;;;;19.10;7.18;;;8.20;99.90;;;;;;5072982;28;20523;-82
2022/11/25 04:59:40;;;;;;;26.65;8.55;;;8.20;99.90;;;;;;5061345;28;20393;-82
2022/11/25 05:02:09;;;;;;;21.15;7.68;;;8.20;99.90;;;;;;5080299;28;20044;-82
2022/11/25 05:04:35;;;;;;;23.38;7.32;;;8.20;99.90;;;;;;5093350;28;20040;-81
2022/11/25 05:07:01;;;;;;;30.92;8.52;;;8.20;99.90;;;;;;5075759;28;20504;-82
2022/11/25 05:09:26;;;;;;;21.85;7.70;;;8.10;99.90;;;;;;5086554;28;20480;-82
2022/11/25 05:11:52;;;;;;;23.73;7.93;;;8.20;99.90;;;;;;5081477;28;20134;-81
2022/11/25 05:14:18;;;;;;;22.85;7.70;;;8.10;99.90;;;;;;5090750;28;20108;-82
2022/11/25 05:16:43;;;;;;;26.33;8.75;;;8.10;99.90;;;;;;5076837;28;20499;-81
2022/11/25 05:19:09;;;;;;;21.35;8.73;;;8.10;99.90;;;;;;5056356;28;20048;-82
2022/11/25 05:21:35;;;;;;;23.58;7.85;;;8.10;99.90;;;;;;5087566;28;20055;-82
2022/11/25 05:24:00;;;;;;;29.00;8.48;;;8.10;99.90;;;;;;5084789;28;20080;-82
2022/11/25 05:26:26;;;;;;;31.40;8.60;;;8.10;99.90;;;;;;5072735;28;20078;-81
2022/11/25 05:28:52;;;;;;;24.90;8.63;;;8.10;99.90;;;;;;5059488;28;20400;-81
2022/11/25 05:31:17;;;;;;;27.75;9.52;;;8.10;99.90;;;;;;5062882;28;20052;-82
2022/11/25 05:33:43;;;;;;;20.67;8.52;;;8.10;99.90;;;;;;5074936;28;20055;-82
2022/11/25 05:36:09;;;;;;;35.45;9.63;;;8.10;99.90;;;;;;5058637;28;20459;-82
2022/11/25 05:38:35;;;;;;;24.83;8.98;;;8.10;99.90;;;;;;5080848;28;20048;-82
2022/11/25 05:41:04;;;;;;;25.20;9.10;;;8.10;99.90;;;;;;5073141;28;20058;-85
2022/11/25 05:43:30;;;;;;;23.83;8.13;;;8.20;99.90;;;;;;5082796;28;20047;-82
2022/11/25 05:45:56;;;;;;;27.17;8.38;;;8.20;99.90;;;;;;5070006;28;20109;-82
2022/11/25 05:48:22;;;;;;;33.35;9.07;;;8.20;99.90;;;;;;5085175;28;20052;-80
2022/11/25 05:50:48;;;;;;;23.30;8.48;;;8.20;99.90;;;;;;5055691;28;20048;-80
2022/11/25 05:53:16;;;;;;;23.95;8.85;;;8.20;99.90;;;;;;5071949;28;20546;-80
2022/11/25 05:55:42;;;;;;;33.47;8.88;;;8.20;99.90;;;;;;5083320;28;20044;-79
2022/11/25 05:58:08;;;;;;;27.90;9.00;;;8.30;99.90;;;;;;5071977;28;20045;-80
2022/11/25 06:00:34;;;;;;;25.35;8.77;;;8.20;99.90;;;;;;5073980;28;20044;-79
2022/11/25 06:03:00;;;;;;;27.75;8.68;;;8.20;99.90;;;;;;5043290;28;20040;-80
2022/11/25 06:05:26;;;;;;;27.35;10.20;;;8.20;99.90;;;;;;5092379;28;20140;-79
2022/11/25 06:07:52;;;;;;;25.45;8.68;;;8.30;99.90;;;;;;5092235;28;20131;-80
2022/11/25 06:10:18;;;;;;;32.90;9.70;;;8.30;99.90;;;;;;5091609;28;20048;-79
2022/11/25 06:12:44;;;;;;;26.98;8.80;;;8.30;99.90;;;;;;5091589;28;20499;-80
2022/11/25 06:15:10;;;;;;;26.90;9.40;;;8.40;99.90;;;;;;5075384;28;20055;-79
2022/11/25 06:17:36;;;;;;;24.58;8.80;;;8.40;99.90;;;;;;5092429;28;20055;-79
2022/11/25 06:20:03;;;;;;;23.90;9.40;;;8.40;99.90;;;;;;5092184;28;20384;-79
2022/11/25 06:22:29;;;;;;;25.95;8.73;;;8.50;99.90;;;;;;5092081;28;20059;-79
2022/11/25 06:24:55;;;;;;;24.92;9.45;;;8.50;99.90;;;;;;5091309;28;20052;-79
2022/11/25 06:27:20;;;;;;;23.10;9.30;;;8.50;99.90;;;;;;5116598;28;20055;-80
2022/11/25 06:29:46;;;;;;;28.20;9.77;;;8.50;99.90;;;;;;5072589;28;20065;-81
2022/11/25 06:32:12;;;;;;;28.95;10.13;;;8.50;99.90;;;;;;5088078;28;20170;-80
2022/11/25 06:34:41;;;;;;;29.92;9.50;;;8.50;99.90;;;;;;5059946;28;20475;-79
2022/11/25 06:37:07;;;;;;;29.05;8.85;;;8.50;99.90;;;;;;5083655;28;20052;-86
2022/11/25 06:39:33;;;;;;;27.75;8.85;;;8.50;99.90;;;;;;5084421;28;20086;-80
2022/11/25 06:41:59;;;;;;;30.05;8.88;;;8.50;99.90;;;;;;5072176;28;20072;-79
2022/11/25 06:44:25;;;;;;;27.75;9.20;;;8.40;99.90;;;;;;5055139;28;20067;-80
2022/11/25 06:46:51;;;;;;;24.33;8.75;;;8.40;99.90;;;;;;5063583;28;20037;-80
2022/11/25 06:49:16;;;;;;;26.60;8.70;;;8.40;99.90;;;;;;5072530;28;20052;-80
2022/11/25 06:51:42;;;;;;;26.25;8.73;;;8.30;99.90;;;;;;5085449;28;20036;-80
2022/11/25 06:54:09;;;;;;;29.83;9.00;;;8.30;99.90;;;;;;5061565;28;20052;-81
2022/11/25 06:56:35;;;;;;;23.92;8.63;;;8.20;99.90;;;;;;5079923;28;20040;-80
2022/11/25 06:59:02;;;;;;;29.02;8.07;;;8.20;99.90;;;;;;5081900;28;20401;-78
2022/11/25 07:01:29;;;;;;;22.05;8.07;;;8.10;99.90;;;;;;5082814;28;20048;-81
2022/11/25 07:04:04;;;;;;;31.05;9.65;;;8.10;99.90;;;;;;5072912;28;20039;-80
2022/11/25 07:06:30;;;;;;;24.13;8.35;;;8.10;99.90;;;;;;5051548;28;20060;-79
2022/11/25 07:08:57;;;;;;;26.13;8.50;;;8.00;99.90;;;;;;5059584;28;20044;-80
2022/11/25 07:11:25;;;;;;;30.45;8.55;;;8.00;99.90;;;;;;5070970;28;20044;-80
2022/11/25 07:13:56;;;;;;;27.80;8.75;;;7.90;99.90;;;;;;5058644;28;20041;-80
2022/11/25 07:16:22;;;;;;;23.60;8.18;;;7.90;99.90;;;;;;5074993;28;20037;-79
2022/11/25 07:18:48;;;;;;;21.77;8.45;;;7.90;99.90;;;;;;5109215;28;20097;-80
2022/11/25 07:21:16;;;;;;;24.27;7.97;;;7.90;99.90;;;;;;5074889;28;20504;-81
2022/11/25 07:23:43;;;;;;;20.58;7.47;;;7.90;99.90;;;;;;5075040;28;20048;-80
2022/11/25 07:26:22;;;;;;;22.40;8.38;;;7.80;99.90;;;;;;5075100;28;20056;-80
2022/11/25 07:28:49;;;;;;;23.70;8.10;;;7.80;99.90;;;;;;5058188;28;20614;-80
2022/11/25 07:31:21;;;;;;;24.27;9.13;;;7.80;99.90;;;;;;5074745;28;20052;-81
2022/11/25 07:33:50;;;;;;;23.00;8.15;;;7.80;99.90;;;;;;5058198;28;20048;-85
2022/11/25 07:36:15;;;;;;;21.52;7.93;;;7.80;99.90;;;;;;5073089;28;20040;-84
2022/11/25 07:38:41;;;;;;;20.15;7.70;;;7.90;99.90;;;;;;5074319;28;20131;-78
2022/11/25 07:41:09;;;;;;;18.02;7.15;;;7.80;99.90;;;;;;5072242;28;20191;-78
2022/11/25 07:43:36;;;;;;;20.75;7.80;;;7.80;99.90;;;;;;5081768;28;20564;-78
2022/11/25 07:46:30;;;;;;;24.33;8.13;;;7.70;99.90;;;;;;5094608;28;20470;-78
2022/11/25 07:49:00;;;;;;;19.52;8.27;;;7.80;99.90;;;;;;5081251;28;20064;-79
2022/11/25 07:51:28;;;;;;;16.35;8.13;;;7.70;99.90;;;;;;5058024;28;20056;-79
2022/11/25 07:53:55;;;;;;;23.38;9.15;;;7.80;99.90;;;;;;5074434;28;20067;-78
2022/11/25 07:56:21;;;;;;;18.95;9.57;;;7.80;99.90;;;;;;5094137;28;20047;-79
2022/11/25 07:58:47;;;;;;;24.92;9.25;;;7.70;99.90;;;;;;5071435;28;20512;-79
2022/11/25 08:01:15;;;;;;;19.95;9.25;;;7.80;99.90;;;;;;5077508;28;20040;-79
2022/11/25 08:03:43;;;;;;;21.17;8.45;;;7.70;99.90;;;;;;5094236;28;20051;-79
2022/11/25 08:06:11;;;;;;;18.75;8.45;;;7.70;99.90;;;;;;5094657;28;20507;-78
2022/11/25 08:08:38;;;;;;;22.60;8.60;;;7.80;99.90;;;;;;5094513;28;20048;-79
2022/11/25 08:11:09;;;;;;;20.63;8.82;;;7.70;99.90;;;;;;5067481;28;20049;-79
2022/11/25 08:13:35;;;;;;;20.52;9.80;;;7.70;99.90;;;;;;5057491;28;20037;-79
2022/11/25 08:16:01;;;;;;;21.40;9.23;;;7.70;99.90;;;;;;5075225;28;20093;-79
2022/11/25 08:18:27;;;;;;;18.75;9.32;;;7.70;99.90;;;;;;5073958;28;20052;-79
2022/11/25 08:21:03;;;;;;;24.45;9.02;;;7.70;99.90;;;;;;5073883;28;20055;-79
2022/11/25 08:23:30;;;;;;;23.27;8.70;;;7.70;99.90;;;;;;5057915;28;20044;-79
2022/11/25 08:25:56;;;;;;;19.92;8.60;;;7.70;99.90;;;;;;5076364;28;20052;-79
2022/11/25 08:28:22;;;;;;;19.63;9.57;;;7.70;99.90;;;;;;5073772;28;20047;-80
2022/11/25 08:30:48;;;;;;;21.40;8.50;;;7.70;99.90;;;;;;5073763;28;20052;-78
2022/11/25 08:33:14;;;;;;;20.52;8.38;;;7.70;99.90;;;;;;5061790;28;20104;-79
2022/11/25 08:35:39;;;;;;;18.40;8.38;;;7.70;99.90;;;;;;5062833;28;20040;-79
2022/11/25 08:38:07;;;;;;;25.73;8.60;;;7.70;99.90;;;;;;5060748;28;20055;-79
2022/11/25 08:40:34;;;;;;;25.65;8.70;;;7.70;99.90;;;;;;5085726;28;20048;-79
2022/11/25 08:43:00;;;;;;;20.25;8.25;;;7.70;99.90;;;;;;5094758;28;20048;-79
2022/11/25 08:45:27;;;;;;;20.05;8.55;;;7.70;99.90;;;;;;5091664;28;20055;-79
2022/11/25 08:47:53;;;;;;;18.30;8.25;;;7.80;99.90;;;;;;5093980;28;20499;-79
2022/11/25 08:50:20;;;;;;;21.70;8.77;;;7.80;99.90;;;;;;5091119;28;20126;-79
2022/11/25 08:52:46;;;;;;;23.08;8.75;;;7.80;99.90;;;;;;5073341;28;20257;-79
2022/11/25 08:55:12;;;;;;;24.40;8.32;;;7.90;99.90;;;;;;5065250;28;20059;-78
2022/11/25 08:57:37;;;;;;;17.65;8.60;;;8.00;99.90;;;;;;5093340;28;20044;-79
2022/11/25 09:00:05;;;;;;;19.85;8.70;;;8.00;99.90;;;;;;5093530;28;20690;-79
2022/11/25 09:02:31;;;;;;;17.27;8.93;;;8.00;99.90;;;;;;5059869;28;20040;-79
2022/11/25 09:04:57;;;;;;;19.00;8.50;;;8.10;99.90;;;;;;5075298;28;20058;-79
2022/11/25 09:07:22;;;;;;;24.10;8.38;;;8.10;99.90;;;;;;5074102;28;20045;-78
2022/11/25 09:09:48;;;;;;;21.77;9.02;;;8.10;99.90;;;;;;5079159;28;20048;-79
2022/11/25 09:12:14;;;;;;;17.73;7.78;;;8.10;99.90;;;;;;5059883;28;20481;-84
2022/11/25 09:14:40;;;;;;;17.77;8.48;;;8.20;99.90;;;;;;5060854;28;20045;-87
2022/11/25 09:17:14;;;;;;;20.88;7.93;;;8.20;99.90;;;;;;5108876;27;20051;-79
2022/11/25 09:19:40;;;;;;;16.33;7.88;;;8.30;99.90;;;;;;5062470;28;20481;-83
2022/11/25 09:22:06;;;;;;;16.60;7.82;;;8.30;99.90;;;;;;5053587;28;20101;-83
2022/11/25 09:24:34;;;;;;;16.02;7.53;;;8.40;99.90;;;;;;5065483;28;20067;-81
2022/11/25 09:27:00;;;;;;;19.08;8.38;;;8.40;99.90;;;;;;5084893;28;20459;-87
2022/11/25 09:29:26;;;;;;;17.77;7.68;;;8.50;99.90;;;;;;5063711;28;20463;-81
2022/11/25 09:31:52;;;;;;;19.40;7.30;;;8.50;99.90;;;;;;5085079;28;20060;-82
2022/11/25 09:34:18;;;;;;;15.13;7.63;;;8.50;99.90;;;;;;5052611;28;20576;-81
2022/11/25 09:36:44;;;;;;;18.00;7.88;;;8.50;99.90;;;;;;5043456;28;20064;-82
2022/11/25 09:39:10;;;;;;;16.60;7.50;;;8.70;99.90;;;;;;5055049;28;20048;-80
2022/11/25 09:48:31;;;;;;;17.20;7.00;;;8.80;99.90;;;;;;5064690;28;20056;-79
2022/11/25 09:51:16;;;;;;;18.00;8.05;;;8.90;99.90;;;;;;5088625;28;20052;-80
2022/11/25 09:53:50;;;;;;;13.35;6.63;;;8.90;99.90;;;;;;5069912;28;20738;-80
2022/11/25 09:56:30;;;;;;;16.00;6.80;;;9.00;99.90;;;;;;5071469;28;20052;-81
2022/11/25 09:59:24;;;;;;;19.33;6.65;;;9.00;99.90;;;;;;5084482;28;20526;-81
2022/11/25 10:02:00;;;;;;;16.73;6.00;;;9.10;99.90;;;;;;5074141;28;20132;-80
2022/11/25 10:04:53;;;;;;;16.73;6.15;;;9.20;99.90;;;;;;5091773;28;20047;-80
2022/11/25 10:07:40;;;;;;;14.73;6.03;;;9.20;99.90;;;;;;5088942;28;20097;-82
2022/11/25 10:10:17;;;;;;;15.40;5.95;;;9.30;99.90;;;;;;5055053;28;20134;-81
2022/11/25 10:12:44;;;;;;;14.23;5.68;;;9.30;99.90;;;;;;5066773;28;20056;-80
2022/11/25 10:15:28;;;;;;;16.35;5.68;;;9.30;99.90;;;;;;5046376;28;20051;-80
2022/11/25 10:18:04;;;;;;;20.83;6.28;;;9.40;99.90;;;;;;5051630;28;20048;-79
2022/11/25 10:20:34;;;;;;;15.27;5.13;;;9.50;99.90;;;;;;5060610;28;20044;-79
2022/11/25 10:23:09;;;;;;;13.45;5.57;;;9.50;99.90;;;;;;5090885;28;20070;-80
2022/11/25 10:25:41;;;;;;;14.65;5.38;;;9.50;99.90;;;;;;5091494;28;20052;-81
2022/11/25 10:28:23;;;;;;;20.02;5.95;;;9.70;99.90;;;;;;5075238;28;20109;-80
2022/11/25 10:30:59;;;;;;;14.82;5.20;;;9.80;99.90;;;;;;5080191;28;20052;-79
2022/11/25 10:33:35;;;;;;;16.05;4.80;;;9.80;99.90;;;;;;5054276;28;20052;-79
2022/11/25 10:36:13;;;;;;;15.63;5.45;;;9.90;99.90;;;;;;5071333;28;20138;-80
2022/11/25 10:38:55;;;;;;;16.83;4.88;;;10.00;99.90;;;;;;5056902;28;20053;-79
2022/11/25 10:41:25;;;;;;;13.82;4.10;;;10.00;99.90;;;;;;5071188;28;20052;-79
2022/11/25 10:43:50;;;;;;;17.33;5.20;;;10.10;99.90;;;;;;5081002;28;20036;-80
2022/11/25 10:46:44;;;;;;;12.10;4.35;;;10.10;99.90;;;;;;5069061;28;20048;-81
2022/11/25 10:49:28;;;;;;;16.98;4.30;;;10.30;99.90;;;;;;5063764;28;20053;-79
2022/11/25 10:51:56;;;;;;;17.45;4.88;;;10.40;99.90;;;;;;5053130;28;20053;-81
2022/11/25 10:54:31;;;;;;;14.90;4.30;;;10.50;99.90;;;;;;5071717;28;20169;-80
2022/11/25 10:56:59;;;;;;;18.42;4.95;;;10.50;99.90;;;;;;5073259;28;20048;-80
2022/11/25 10:59:26;;;;;;;16.58;4.22;;;10.70;99.90;;;;;;5072140;28;20045;-80
2022/11/25 11:02:05;;;;;;;17.63;4.50;;;10.70;99.90;;;;;;5089942;28;20181;-79
2022/11/25 11:04:50;;;;;;;14.82;4.25;;;10.70;99.90;;;;;;5073094;28;20036;-80
2022/11/25 11:07:16;;;;;;;15.55;3.83;;;10.60;99.90;;;;;;5085502;28;20506;-79
2022/11/25 11:09:44;;;;;;;14.10;3.83;;;10.50;99.90;;;;;;5068105;28;20084;-82
2022/11/25 11:12:24;;;;;;;20.05;3.88;;;10.50;99.90;;;;;;5085746;28;20052;-79
2022/11/25 11:15:14;;;;;;;16.60;3.45;;;10.50;99.90;;;;;;5074260;28;20408;-80
2022/11/25 11:17:40;;;;;;;17.70;4.03;;;10.50;99.90;;;;;;5075948;28;20582;-78
2022/11/25 11:20:05;;;;;;;14.10;3.63;;;10.90;99.90;;;;;;5072356;28;20116;-81
2022/11/25 11:22:32;;;;;;;16.88;3.85;;;11.20;99.90;;;;;;5074001;28;20041;-78
2022/11/25 11:25:05;;;;;;;13.52;3.00;;;11.40;99.90;;;;;;5079212;28;20133;-80
2022/11/25 11:27:36;;;;;;;13.13;3.28;;;11.70;99.90;;;;;;5090207;28;20059;-79
2022/11/25 11:30:10;;;;;;;14.07;3.03;;;11.90;99.90;;;;;;5073380;28;20052;-79
2022/11/25 11:32:38;;;;;;;14.13;3.42;;;12.10;99.90;;;;;;5074312;28;20162;-79
2022/11/25 11:35:21;;;;;;;13.73;3.42;;;12.20;99.90;;;;;;5074793;28;20044;-78
2022/11/25 11:37:52;;;;;;;16.63;3.30;;;12.10;99.90;;;;;;5077842;28;20503;-78
2022/11/25 11:40:33;;;;;;;15.38;3.50;;;12.00;99.90;;;;;;5095079;28;20514;-80
2022/11/25 11:43:29;;;;;;;15.75;4.65;;;11.80;99.90;;;;;;5082033;28;20125;-78
2022/11/25 11:46:19;;;;;;;16.70;3.47;;;11.60;99.90;;;;;;5059839;28;20139;-78
2022/11/25 11:49:25;;;;;;;16.85;3.80;;;11.40;99.90;;;;;;5070887;28;20132;-81
2022/11/25 11:52:00;;;;;;;15.02;3.20;;;11.50;99.90;;;;;;5092393;28;20517;-79
2022/11/25 11:54:42;;;;;;;15.30;3.45;;;11.40;99.90;;;;;;5088172;28;20052;-78
2022/11/25 11:57:32;;;;;;;24.00;3.47;;;11.40;99.90;;;;;;5073086;28;20514;-78
2022/11/25 12:00:13;;;;;;;15.25;3.45;;;11.40;99.90;;;;;;5072301;28;20055;-80
2022/11/25 12:02:57;;;;;;;21.20;3.80;;;11.30;99.90;;;;;;5073574;28;20048;-77
2022/11/25 12:05:27;;;;;;;19.52;3.45;;;11.40;99.90;;;;;;5071384;28;20472;-82
2022/11/25 12:08:11;;;;;;;16.27;3.20;;;11.60;99.90;;;;;;5054351;28;20078;-82
2022/11/25 12:10:43;;;;;;;14.10;3.40;;;12.10;99.90;;;;;;5071593;28;20052;-79
2022/11/25 12:13:34;;;;;;;16.38;3.40;;;12.40;99.90;;;;;;5073159;28;20518;-79
2022/11/25 12:16:00;;;;;;;18.40;3.40;;;12.70;99.90;;;;;;5073523;28;20049;-79
2022/11/25 12:18:44;;;;;;;18.60;3.90;;;13.20;99.90;;;;;;5072994;28;20109;-79
2022/11/25 12:21:18;;;;;;;15.15;3.17;;;13.80;99.90;;;;;;5056375;28;20139;-80
2022/11/25 12:23:55;;;;;;;14.98;3.15;;;14.10;99.90;;;;;;5073143;28;20037;-82
2022/11/25 12:26:28;;;;;;;17.35;3.75;;;14.10;99.90;;;;;;5073224;28;20050;-79
2022/11/25 12:29:04;;;;;;;17.98;3.28;;;13.90;99.90;;;;;;5072462;28;20114;-80
2022/11/25 12:31:40;;;;;;;;;;;13.50;99.90;;;;;;5073241;28;20060;-81
2022/11/25 12:34:43;;;;;;;16.50;3.20;;;13.20;99.90;;;;;;5055526;28;19981;-83
2022/11/25 12:37:23;;;;;;;15.38;3.58;;;13.00;99.90;;;;;;5072870;28;20051;-80
2022/11/25 12:40:04;;;;;;;21.88;3.63;;;12.80;99.90;;;;;;5072573;28;20044;-80
2022/11/25 12:42:32;;;;;;;16.73;2.80;;;12.70;99.90;;;;;;5053795;28;20103;-80
2022/11/25 12:45:09;;;;;;;19.92;3.42;;;12.80;99.90;;;;;;5035722;28;20048;-80
2022/11/25 12:47:35;;;;;;;22.67;3.45;;;12.90;99.90;;;;;;5053684;28;20045;-79
2022/11/25 12:50:01;;;;;;;18.27;3.13;;;12.90;99.90;;;;;;5071757;28;20043;-80
2022/11/25 12:52:41;;;;;;;19.77;4.15;;;13.00;99.90;;;;;;5072273;28;20485;-80
2022/11/25 12:55:26;;;;;;;17.05;2.85;;;13.00;99.90;;;;;;5070544;28;20113;-79
2022/11/25 12:58:14;;;;;;;17.88;3.33;;;12.90;99.90;;;;;;5055088;28;20480;-83
2022/11/25 13:00:53;;;;;;;22.88;2.88;;;12.70;99.90;;;;;;5069949;28;20119;-80
2022/11/25 13:03:46;;;;;;;14.90;2.63;;;12.50;99.90;;;;;;5065269;28;20048;-79
2022/11/25 13:06:56;;;;;;;18.30;3.35;;;12.40;99.90;;;;;;5072187;28;20048;-81
2022/11/25 13:09:46;;;;;;;15.30;2.90;;;12.20;99.90;;;;;;5084745;28;20481;-79